Time;durP1;ratioP1;P1;durP2;ratioP2;P2;SDS_P1;SDS_P2;PMS_P1;PMS_P2;Temp;Humidity;BMP_temperature;BMP_pressure;BME280_temperature;BME280_humidity;BME280_pressure;Samples;Min_cycle;Max_cycle;Signal;HPM_P1;HPM_P2
2021/04/21 00:00:53;;;;;;;9.75;7.47;;;6.00;99.50;;;;;;6220804;28;20068;-82
2021/04/21 00:03:53;;;;;;;8.50;7.20;;;7.00;99.40;;;;;;6213091;28;20049;-82
2021/04/21 00:06:54;;;;;;;11.27;7.80;;;6.90;99.30;;;;;;6202829;28;20104;-82
2021/04/21 00:09:54;;;;;;;8.48;7.50;;;6.80;99.30;;;;;;6193588;28;20103;-82
2021/04/21 00:12:55;;;;;;;10.55;7.60;;;6.10;99.90;;;;;;6187778;28;20037;-82
2021/04/21 00:15:56;;;;;;;9.50;6.90;;;6.10;98.80;;;;;;6195102;28;20030;-82
2021/04/21 00:18:56;;;;;;;9.10;7.07;;;6.10;99.00;;;;;;6204395;28;20037;-82
2021/04/21 00:21:58;;;;;;;8.95;7.00;;;5.90;98.30;;;;;;6194896;28;20026;-86
2021/04/21 00:24:58;;;;;;;11.75;8.23;;;5.70;98.90;;;;;;6187808;28;20582;-81
2021/04/21 00:27:59;;;;;;;10.05;8.35;;;5.70;99.90;;;;;;6203262;28;20034;-81
2021/04/21 00:31:03;;;;;;;10.48;8.10;;;6.10;99.90;;;;;;6181706;28;20536;-82
2021/04/21 00:34:04;;;;;;;10.93;8.20;;;5.80;99.90;;;;;;6174596;28;20358;-83
2021/04/21 00:37:04;;;;;;;10.93;8.25;;;5.70;99.90;;;;;;6207487;28;20042;-81
2021/04/21 00:40:06;;;;;;;10.00;8.05;;;6.00;98.70;;;;;;6209893;28;20109;-84
2021/04/21 00:43:25;;;;;;;10.18;8.43;;;6.00;99.90;;;;;;6176720;28;20057;-81
2021/04/21 00:46:47;;;;;;;11.35;8.20;;;6.00;99.90;;;;;;6204656;28;20052;-81
2021/04/21 00:50:13;;;;;;;12.88;8.60;;;5.90;99.90;;;;;;6203290;28;20074;-81
2021/04/21 00:53:20;;;;;;;11.48;9.27;;;6.10;99.90;;;;;;6191590;28;20057;-81
2021/04/21 00:56:36;;;;;;;14.60;9.63;;;6.10;99.90;;;;;;6203212;28;20029;-82
2021/04/21 00:59:52;;;;;;;15.30;10.05;;;6.20;97.10;;;;;;6219083;28;20033;-83
2021/04/21 01:02:54;;;;;;;13.85;10.63;;;6.20;96.90;;;;;;6206299;28;20076;-81
2021/04/21 01:06:04;;;;;;;14.25;9.90;;;7.60;98.30;;;;;;6187723;28;20029;-81
2021/04/21 01:09:06;;;;;;;14.73;10.07;;;6.40;96.70;;;;;;6211821;28;20034;-81
2021/04/21 01:12:09;;;;;;;13.73;10.48;;;6.70;97.80;;;;;;6187136;28;20160;-84
2021/04/21 01:15:10;;;;;;;14.13;10.05;;;6.40;97.50;;;;;;6202568;28;20030;-85
2021/04/21 01:18:11;;;;;;;14.60;10.02;;;6.50;97.30;;;;;;6191198;28;20044;-81
2021/04/21 01:21:27;;;;;;;12.88;10.43;;;6.40;97.50;;;;;;6213484;28;20030;-81
2021/04/21 01:24:59;;;;;;;12.98;9.57;;;6.40;96.10;;;;;;6215031;28;20165;-81
2021/04/21 01:28:03;;;;;;;12.95;9.93;;;6.30;96.40;;;;;;6196820;28;20549;-85
2021/04/21 01:31:04;;;;;;;13.25;10.30;;;6.30;96.60;;;;;;6201878;28;20361;-83
2021/04/21 01:34:05;;;;;;;13.90;9.82;;;6.30;98.00;;;;;;6201761;28;20029;-80
2021/04/21 01:37:06;;;;;;;14.43;10.85;;;6.00;99.90;;;;;;6186447;28;20052;-81
2021/04/21 01:40:15;;;;;;;15.73;10.45;;;7.10;98.50;;;;;;6202085;28;20560;-84
2021/04/21 01:43:18;;;;;;;13.60;10.48;;;6.10;98.10;;;;;;6173899;28;20058;-80
2021/04/21 01:46:19;;;;;;;18.08;11.70;;;6.40;98.70;;;;;;6178051;28;20100;-81
2021/04/21 01:49:45;;;;;;;13.55;10.77;;;6.60;99.30;;;;;;6191646;28;20091;-81
2021/04/21 01:53:10;;;;;;;15.23;11.07;;;6.10;97.60;;;;;;6195739;28;20120;-84
2021/04/21 01:56:17;;;;;;;15.57;11.88;;;6.10;97.40;;;;;;6201452;28;20030;-81
2021/04/21 02:02:46;;;;;;;14.48;11.45;;;7.90;98.00;;;;;;6201222;28;20069;-81
2021/04/21 02:06:24;;;;;;;16.10;11.75;;;4.70;99.30;;;;;;6201204;28;20510;-85
2021/04/21 02:09:40;;;;;;;15.18;12.10;;;5.70;98.50;;;;;;6196826;28;20026;-81
2021/04/21 02:12:48;;;;;;;15.30;11.30;;;5.80;98.60;;;;;;6218031;28;20033;-82
2021/04/21 02:16:11;;;;;;;19.58;13.05;;;6.10;99.90;;;;;;6195639;28;20021;-82
2021/04/21 02:19:33;;;;;;;22.45;13.43;;;6.50;99.60;;;;;;6207278;28;20030;-83
2021/04/21 02:22:47;;;;;;;15.02;11.60;;;6.00;98.00;;;;;;6193195;28;20100;-81
2021/04/21 02:25:59;;;;;;;18.88;12.43;;;6.20;97.90;;;;;;6213059;28;20607;-83
2021/04/21 02:29:14;;;;;;;;;;;6.10;99.50;;;;;;6219725;28;20044;-82
2021/04/21 02:32:18;;;;;;;17.23;11.32;;;5.90;99.90;;;;;;6211743;28;19992;-84
2021/04/21 02:35:22;;;;;;;14.50;11.98;;;6.60;98.50;;;;;;6205594;28;20483;-85
2021/04/21 02:38:38;;;;;;;15.77;11.77;;;6.10;99.00;;;;;;6193451;28;20022;-82
2021/04/21 02:42:03;;;;;;;15.57;11.70;;;7.10;99.40;;;;;;6175968;28;20062;-82
2021/04/21 02:45:25;;;;;;;16.50;12.00;;;6.00;97.90;;;;;;6233215;28;20041;-82
2021/04/21 02:48:51;;;;;;;17.27;12.40;;;5.80;97.90;;;;;;6222475;28;20464;-82
2021/04/21 02:52:03;;;;;;;16.48;12.20;;;5.80;98.10;;;;;;6227068;28;20380;-83
2021/04/21 02:55:41;;;;;;;15.15;12.05;;;6.60;99.90;;;;;;6216858;28;20030;-82
2021/04/21 02:59:03;;;;;;;16.45;12.88;;;5.60;98.70;;;;;;6223241;28;20029;-81
2021/04/21 03:02:27;;;;;;;18.73;12.73;;;5.30;99.20;;;;;;6208824;28;20025;-83
2021/04/21 03:05:29;;;;;;;18.25;13.40;;;5.20;99.60;;;;;;6223525;28;20030;-83
2021/04/21 03:08:42;;;;;;;19.23;12.80;;;5.40;99.90;;;;;;6198393;28;20087;-81
2021/04/21 03:11:42;;;;;;;;;;;5.40;99.80;;;;;;6221513;28;20396;-81
2021/04/21 03:14:46;;;;;;;19.95;13.60;;;6.10;99.90;;;;;;6217686;28;19909;-82
2021/04/21 03:17:46;;;;;;;19.00;12.60;;;;;;;;;;6208582;28;20125;-83
2021/04/21 03:20:53;;;;;;;20.50;14.18;;;6.60;99.50;;;;;;6209898;28;20025;-83
2021/04/21 03:24:07;;;;;;;20.15;14.23;;;4.80;99.80;;;;;;6221387;28;20038;-84
2021/04/21 03:27:08;;;;;;;20.40;14.10;;;4.80;99.90;;;;;;6221505;28;20049;-82
2021/04/21 03:30:13;;;;;;;20.65;13.48;;;6.40;99.90;;;;;;6198327;28;20053;-82
2021/04/21 03:33:16;;;;;;;18.60;13.43;;;4.60;99.90;;;;;;6194215;28;20635;-82
2021/04/21 03:36:18;;;;;;;22.08;15.43;;;4.80;99.90;;;;;;6205009;28;20554;-82
2021/04/21 03:39:18;;;;;;;22.13;14.52;;;5.20;99.90;;;;;;6188759;28;20030;-83
2021/04/21 03:42:19;;;;;;;18.80;13.68;;;4.80;99.90;;;;;;6205739;28;20129;-83
2021/04/21 03:45:19;;;;;;;20.85;13.77;;;5.40;99.90;;;;;;6205076;28;20042;-81
2021/04/21 03:48:20;;;;;;;22.10;12.57;;;4.80;99.90;;;;;;6217491;28;20036;-81
2021/04/21 03:51:21;;;;;;;22.23;14.60;;;4.80;99.90;;;;;;6212419;28;20030;-82
2021/04/21 03:54:22;;;;;;;19.17;14.10;;;5.60;99.90;;;;;;6220478;28;20030;-81
2021/04/21 03:57:22;;;;;;;18.42;13.40;;;4.80;99.90;;;;;;6204122;28;20053;-82
2021/04/21 04:00:23;;;;;;;18.67;13.35;;;4.80;99.90;;;;;;6204473;28;20380;-84
2021/04/21 04:03:27;;;;;;;18.65;13.43;;;4.50;99.90;;;;;;6204638;28;20037;-82
2021/04/21 04:06:57;;;;;;;20.35;13.80;;;4.80;99.90;;;;;;6196674;28;20065;-82
2021/04/21 04:10:03;;;;;;;18.65;13.23;;;4.40;99.90;;;;;;6207456;28;20088;-82
2021/04/21 04:13:07;;;;;;;18.38;12.45;;;4.20;99.90;;;;;;6188107;28;20046;-80
2021/04/21 04:16:07;;;;;;;16.20;12.25;;;4.30;99.90;;;;;;6217353;28;20026;-82
2021/04/21 04:19:09;;;;;;;19.50;13.43;;;;;;;;;;6220108;28;20077;-81
2021/04/21 04:22:12;;;;;;;17.90;12.45;;;4.10;99.90;;;;;;6217123;28;20511;-81
2021/04/21 04:25:13;;;;;;;21.67;14.30;;;4.20;99.90;;;;;;6213368;28;20187;-82
2021/04/21 04:28:14;;;;;;;19.63;14.50;;;4.30;99.90;;;;;;6187468;28;20037;-81
2021/04/21 04:31:15;;;;;;;17.70;12.80;;;4.20;99.90;;;;;;6219661;28;20030;-83
2021/04/21 04:34:15;;;;;;;60.95;36.67;;;4.50;99.90;;;;;;6203631;28;20116;-81
2021/04/21 04:37:17;;;;;;;41.50;25.38;;;4.30;99.90;;;;;;6187639;28;20043;-83
2021/04/21 04:40:18;;;;;;;47.22;31.65;;;4.50;99.90;;;;;;6219061;28;20022;-79
2021/04/21 04:43:20;;;;;;;46.25;30.92;;;4.70;99.90;;;;;;6214126;28;20061;-79
2021/04/21 04:46:21;;;;;;;32.03;22.50;;;4.50;99.90;;;;;;6191397;28;20068;-79
2021/04/21 04:49:22;;;;;;;37.00;22.33;;;;;;;;;;6187719;28;20662;-79
2021/04/21 04:52:24;;;;;;;26.90;17.25;;;4.50;99.90;;;;;;6219317;28;20060;-79
2021/04/21 04:55:25;;;;;;;27.15;17.27;;;4.30;99.90;;;;;;6218799;28;20037;-78
2021/04/21 04:58:27;;;;;;;22.08;13.95;;;4.80;99.90;;;;;;6220867;28;20038;-79
2021/04/21 05:01:27;;;;;;;44.08;23.90;;;4.70;99.90;;;;;;6203079;28;20113;-79
2021/04/21 05:04:35;;;;;;;20.65;13.40;;;5.20;99.90;;;;;;6187177;28;20381;-79
2021/04/21 05:07:44;;;;;;;24.15;17.50;;;4.90;99.90;;;;;;6217508;28;20070;-79
2021/04/21 05:11:06;;;;;;;23.38;15.20;;;5.20;99.90;;;;;;6218049;28;20037;-78
2021/04/21 05:14:10;;;;;;;18.98;14.05;;;5.70;99.90;;;;;;6220237;28;20034;-77
2021/04/21 05:17:33;;;;;;;20.73;14.77;;;6.10;99.90;;;;;;6186801;28;20086;-78
2021/04/21 05:20:54;;;;;;;20.40;15.88;;;6.50;99.90;;;;;;6221010;28;20084;-76
2021/04/21 05:24:19;;;;;;;15.88;12.00;;;6.90;99.70;;;;;;6188772;28;20053;-76
2021/04/21 05:27:45;;;;;;;17.10;12.68;;;6.80;97.90;;;;;;6219847;28;20030;-78
2021/04/21 05:30:55;;;;;;;21.67;14.73;;;7.30;99.90;;;;;;6211224;28;20540;-78
2021/04/21 05:34:18;;;;;;;17.80;13.25;;;7.80;99.90;;;;;;6221675;28;20045;-77
2021/04/21 05:37:56;;;;;;;18.23;14.38;;;8.10;99.90;;;;;;6218732;28;20124;-77
2021/04/21 05:41:34;;;;;;;24.48;19.00;;;8.40;99.90;;;;;;6219626;28;20045;-78
2021/04/21 05:44:57;;;;;;;21.30;16.67;;;8.90;99.90;;;;;;6219688;28;20392;-78
2021/04/21 05:48:34;;;;;;;17.05;13.45;;;9.30;98.20;;;;;;6219451;28;20061;-77
2021/04/21 05:52:07;;;;;;;16.55;12.70;;;9.50;99.90;;;;;;6217876;28;20034;-77
2021/04/21 05:55:46;;;;;;;19.40;15.27;;;9.70;96.80;;;;;;6217956;28;20737;-77
2021/04/21 05:59:12;;;;;;;14.98;11.95;;;9.80;99.50;;;;;;6201722;28;20029;-77
2021/04/21 06:02:12;;;;;;;14.32;11.35;;;9.70;99.90;;;;;;6218662;28;20165;-77
2021/04/21 06:05:14;;;;;;;14.50;12.88;;;9.90;99.90;;;;;;6185643;28;20046;-78
2021/04/21 06:08:15;;;;;;;16.35;12.05;;;;;;;;;;6198881;28;20377;-77
2021/04/21 06:11:28;;;;;;;15.60;12.13;;;10.30;99.10;;;;;;6217075;28;20113;-78
2021/04/21 06:14:29;;;;;;;14.85;12.00;;;;;;;;;;6217416;28;20100;-78
2021/04/21 06:17:29;;;;;;;14.90;11.15;;;;;;;;;;6216415;28;20029;-78
2021/04/21 06:20:30;;;;;;;14.30;12.18;;;;;;;;;;6218746;28;20028;-78
2021/04/21 06:23:31;;;;;;;13.15;10.73;;;;;;;;;;6219114;28;20028;-76
2021/04/21 06:26:32;;;;;;;15.25;11.55;;;12.50;90.20;;;;;;6217119;28;20037;-78
2021/04/21 06:29:33;;;;;;;16.40;11.38;;;13.00;86.90;;;;;;6185312;28;20112;-79
2021/04/21 06:32:34;;;;;;;11.63;9.50;;;13.60;83.30;;;;;;6216672;28;20037;-77
2021/04/21 06:35:35;;;;;;;13.55;10.80;;;13.90;80.70;;;;;;6218624;28;20030;-78
2021/04/21 06:38:37;;;;;;;18.63;15.35;;;13.70;82.30;;;;;;6185272;28;20124;-79
2021/04/21 06:41:38;;;;;;;14.98;12.77;;;14.20;80.40;;;;;;6216214;28;20046;-78
2021/04/21 06:44:43;;;;;;;12.70;10.25;;;14.60;77.70;;;;;;6216210;28;20108;-79
2021/04/21 06:47:43;;;;;;;12.48;10.20;;;15.10;75.60;;;;;;6204828;28;20460;-79
2021/04/21 06:50:44;;;;;;;12.82;10.48;;;15.30;73.90;;;;;;6210879;28;20030;-77
2021/04/21 06:53:45;;;;;;;11.13;9.52;;;15.70;74.30;;;;;;6202774;28;20057;-77
2021/04/21 06:56:46;;;;;;;12.83;11.13;;;;;;;;;;6185063;28;20069;-79
2021/04/21 07:00:11;;;;;;;11.73;10.25;;;16.80;89.30;;;;;;6207031;28;20117;-80
2021/04/21 07:03:16;;;;;;;12.07;10.13;;;16.80;69.70;;;;;;6196176;28;20136;-80
2021/04/21 07:06:17;;;;;;;12.27;10.25;;;16.70;67.20;;;;;;6216109;28;20069;-77
2021/04/21 07:09:21;;;;;;;11.30;9.43;;;17.00;84.10;;;;;;6182967;28;20507;-79
2021/04/21 07:12:21;;;;;;;11.63;9.70;;;16.80;66.40;;;;;;6216206;28;20030;-79
2021/04/21 07:15:22;;;;;;;10.73;9.50;;;17.80;77.70;;;;;;6211200;28;20034;-80
2021/04/21 07:18:35;;;;;;;11.18;9.73;;;18.40;76.40;;;;;;6195900;28;20112;-80
2021/04/21 07:21:37;;;;;;;12.65;9.52;;;18.70;58.10;;;;;;6199259;28;20062;-78
2021/04/21 07:24:38;;;;;;;13.38;9.25;;;19.10;60.90;;;;;;6185117;28;20033;-79
2021/04/21 07:27:39;;;;;;;11.23;9.13;;;18.90;61.40;;;;;;6186333;28;20107;-78
2021/04/21 07:30:39;;;;;;;12.82;10.63;;;19.10;79.00;;;;;;6212634;28;20514;-77
2021/04/21 07:33:47;;;;;;;11.48;9.20;;;19.20;61.70;;;;;;6218167;28;20038;-79
2021/04/21 07:36:48;;;;;;;12.90;9.30;;;19.70;60.10;;;;;;6204736;28;20041;-78
2021/04/21 07:39:49;;;;;;;12.52;9.93;;;19.90;61.20;;;;;;6222194;28;20026;-78
2021/04/21 07:42:49;;;;;;;13.90;8.93;;;20.30;59.10;;;;;;6204019;28;20388;-79
2021/04/21 07:45:54;;;;;;;11.57;9.32;;;20.20;58.10;;;;;;6220570;28;20108;-79
2021/04/21 07:48:55;;;;;;;9.48;8.45;;;20.20;54.10;;;;;;6220584;28;20036;-78
2021/04/21 07:51:55;;;;;;;9.18;8.27;;;20.50;55.90;;;;;;6187227;28;20034;-79
2021/04/21 07:55:13;;;;;;;9.40;8.25;;;20.90;55.60;;;;;;6204257;28;20038;-79
2021/04/21 07:58:13;;;;;;;8.57;7.68;;;21.10;52.10;;;;;;6221884;28;20025;-78
2021/04/21 08:01:14;;;;;;;10.80;8.30;;;21.30;53.00;;;;;;6204391;28;20041;-79
2021/04/21 08:04:25;;;;;;;9.13;8.25;;;21.60;69.50;;;;;;6197634;28;20037;-79
2021/04/21 08:18:40;;;;;;;11.18;8.60;;;22.40;63.60;;;;;;6679955;23;20634;-78
2021/04/21 08:21:48;;;;;;;10.15;9.13;;;22.60;52.10;;;;;;6251729;28;20395;-77
2021/04/21 08:24:49;;;;;;;9.77;8.38;;;22.50;64.00;;;;;;6252119;28;20033;-77
2021/04/21 08:28:27;;;;;;;10.77;8.63;;;22.80;47.20;;;;;;6268756;28;20043;-77
2021/04/21 08:32:23;;;;;;;10.60;9.50;;;21.40;45.90;;;;;;6252027;28;20399;-77
2021/04/21 08:35:27;;;;;;;9.48;8.27;;;22.90;46.10;;;;;;6264056;28;20051;-77
2021/04/21 08:38:28;;;;;;;11.15;9.98;;;23.20;58.80;;;;;;6232788;28;20036;-78
2021/04/21 08:45:25;;;;;;;10.75;9.50;;;22.20;46.40;;;;;;6266892;28;20091;-78
2021/04/21 08:48:26;;;;;;;10.80;8.85;;;23.70;49.60;;;;;;6221162;28;20197;-77
2021/04/21 08:51:27;;;;;;;11.52;9.00;;;23.20;65.10;;;;;;6218582;28;20048;-79
2021/04/21 08:54:29;;;;;;;10.32;9.10;;;23.10;48.60;;;;;;6227623;28;20415;-79
2021/04/21 08:57:29;;;;;;;12.60;9.43;;;23.60;63.00;;;;;;6225481;28;20041;-78
2021/04/21 09:00:30;;;;;;;12.50;8.85;;;23.80;47.30;;;;;;6208638;28;20095;-77
2021/04/21 09:03:35;;;;;;;11.07;9.07;;;23.30;47.70;;;;;;6208661;28;20053;-78
2021/04/21 09:06:36;;;;;;;11.88;8.70;;;23.40;46.90;;;;;;6243575;28;20368;-80
2021/04/21 09:09:36;;;;;;;14.35;9.50;;;23.40;46.30;;;;;;6243458;28;20029;-76
2021/04/21 09:12:37;;;;;;;10.63;9.50;;;23.50;47.60;;;;;;6243431;28;20468;-79
2021/04/21 09:15:38;;;;;;;13.07;9.68;;;23.20;47.70;;;;;;6243083;28;20033;-79
2021/04/21 09:18:38;;;;;;;11.20;8.93;;;24.70;49.50;;;;;;6243096;28;20073;-78
2021/04/21 09:21:39;;;;;;;13.07;9.65;;;23.40;48.30;;;;;;6242554;28;20032;-77
2021/04/21 09:25:38;;;;;;;11.55;10.15;;;23.50;48.80;;;;;;6226710;28;20160;-78
2021/04/21 09:28:40;;;;;;;12.30;10.40;;;;;;;;;;6241599;28;20052;-79
2021/04/21 09:35:40;;;;;;;12.98;10.32;;;23.40;60.60;;;;;;6213696;28;20374;-80
2021/04/21 09:38:41;;;;;;;12.30;10.60;;;;;;;;;;6243120;28;20442;-78
2021/04/21 09:41:43;;;;;;;13.73;10.82;;;22.80;58.90;;;;;;6259110;28;20026;-76
2021/04/21 09:44:47;;;;;;;10.93;9.38;;;22.50;61.50;;;;;;6242173;28;20042;-77
2021/04/21 09:48:03;;;;;;;13.02;9.45;;;22.30;61.70;;;;;;6243017;28;20033;-77
2021/04/21 09:51:08;;;;;;;11.65;9.98;;;21.70;81.90;;;;;;6242661;28;20029;-77
2021/04/21 09:54:08;;;;;;;13.35;9.18;;;21.70;61.50;;;;;;6242419;28;20472;-78
2021/04/21 09:57:11;;;;;;;12.20;10.15;;;21.40;65.50;;;;;;6241483;28;20030;-79
2021/04/21 10:00:12;;;;;;;12.20;10.30;;;20.20;50.90;;;;;;6223600;28;20911;-78
2021/04/21 10:03:16;;;;;;;14.65;10.20;;;19.70;51.40;;;;;;6240368;28;20103;-78
2021/04/21 10:06:21;;;;;;;12.65;9.75;;;19.20;53.90;;;;;;6226005;28;20029;-79
2021/04/21 10:09:31;;;;;;;14.93;11.48;;;19.00;55.10;;;;;;6241895;28;20091;-79
2021/04/21 10:12:35;;;;;;;107.53;58.47;;;19.20;55.30;;;;;;6225631;28;20106;-78
2021/04/21 10:15:36;;;;;;;15.13;12.50;;;19.90;55.10;;;;;;6241936;28;20032;-78
2021/04/21 10:18:37;;;;;;;12.77;10.40;;;21.40;67.10;;;;;;6207858;28;20080;-78
2021/04/21 10:21:38;;;;;;;13.80;9.32;;;;;;;;;;6242379;28;20120;-79
2021/04/21 10:24:39;;;;;;;10.65;9.20;;;22.60;45.80;;;;;;6225579;28;20056;-78
2021/04/21 10:27:39;;;;;;;11.05;8.00;;;23.10;48.20;;;;;;6241893;28;20029;-79
2021/04/21 10:30:40;;;;;;;9.90;8.65;;;23.30;44.20;;;;;;6225518;28;20383;-77
2021/04/21 10:33:41;;;;;;;9.40;7.85;;;23.80;43.90;;;;;;6241982;28;20140;-78
2021/04/21 10:36:43;;;;;;;8.25;7.35;;;23.70;43.90;;;;;;6241787;28;20026;-78
2021/04/21 10:39:45;;;;;;;9.38;7.57;;;24.10;44.80;;;;;;6241694;28;20782;-78
2021/04/21 10:42:54;;;;;;;10.38;8.05;;;24.40;43.40;;;;;;6241508;28;20026;-77
2021/04/21 10:54:09;;;;;;;9.55;8.13;;;24.60;53.80;;;;;;6165580;28;20038;-78
2021/04/21 10:57:21;;;;;;;7.90;7.07;;;24.70;51.30;;;;;;6149842;28;20039;-79
2021/04/21 11:04:24;;;;;;;9.10;8.07;;;26.20;40.00;;;;;;6166192;28;20129;-79
2021/04/21 11:08:21;;;;;;;8.68;7.60;;;24.40;58.30;;;;;;6150071;28;20039;-78
2021/04/21 11:26:17;;;;;;;6.38;5.68;;;23.80;34.30;;;;;;6873613;22;20066;-81
2021/04/21 11:29:27;;;;;;;6.00;5.40;;;23.50;37.70;;;;;;6197998;28;20034;-82
2021/04/21 11:32:37;;;;;;;8.18;6.88;;;24.00;41.10;;;;;;6198350;28;20580;-79
2021/04/21 11:35:38;;;;;;;7.55;6.75;;;24.20;41.10;;;;;;6179486;28;20026;-79
2021/04/21 11:38:42;;;;;;;9.60;6.70;;;24.30;41.60;;;;;;6177802;28;20568;-81
2021/04/21 11:41:47;;;;;;;11.70;7.60;;;24.50;44.90;;;;;;6178856;28;20396;-79
2021/04/21 11:44:48;;;;;;;8.85;6.93;;;24.80;39.60;;;;;;6178507;28;20038;-79
2021/04/21 11:47:49;;;;;;;7.83;6.97;;;24.70;41.00;;;;;;6197725;28;20165;-81
2021/04/21 11:50:50;;;;;;;8.35;6.80;;;24.80;37.80;;;;;;6178095;28;20485;-80
2021/04/21 11:53:50;;;;;;;5.77;5.10;;;24.70;39.60;;;;;;6142353;28;20053;-83
2021/04/21 11:56:51;;;;;;;8.30;6.00;;;24.70;39.70;;;;;;6172643;28;20050;-80
2021/04/21 11:59:52;;;;;;;6.90;6.17;;;24.80;41.00;;;;;;6171733;28;20034;-80
2021/04/21 12:02:52;;;;;;;7.10;6.40;;;24.60;42.30;;;;;;6171639;28;20118;-81
2021/04/21 12:06:15;;;;;;;8.33;6.47;;;24.50;35.70;;;;;;6170493;28;20031;-80
2021/04/21 12:09:15;;;;;;;5.00;4.32;;;24.10;34.80;;;;;;6162635;28;20042;-81
2021/04/21 12:12:23;;;;;;;5.72;4.82;;;23.10;42.30;;;;;;6170015;28;20038;-81
2021/04/21 12:15:23;;;;;;;7.32;6.05;;;21.60;46.40;;;;;;6170403;28;20027;-80
2021/04/21 12:18:50;;;;;;;7.15;6.25;;;20.00;47.30;;;;;;6169366;28;20034;-81
2021/04/21 12:21:50;;;;;;;9.20;6.40;;;18.70;53.30;;;;;;6139552;28;20027;-81
2021/04/21 12:25:03;;;;;;;8.55;6.95;;;18.00;56.60;;;;;;6155327;28;20078;-81
2021/04/21 12:28:04;;;;;;;8.60;6.50;;;17.30;60.80;;;;;;6155911;28;20135;-84
2021/04/21 12:31:04;;;;;;;8.75;6.07;;;17.30;64.30;;;;;;6155101;28;20043;-81
2021/04/21 12:34:06;;;;;;;8.38;7.07;;;15.80;85.00;;;;;;6153524;28;20042;-82
2021/04/21 12:37:07;;;;;;;11.00;7.35;;;15.60;68.60;;;;;;6154587;28;20034;-86
2021/04/21 12:40:21;;;;;;;7.38;6.20;;;15.90;81.50;;;;;;6154601;28;20473;-83
2021/04/21 12:43:25;;;;;;;8.00;7.03;;;16.30;62.80;;;;;;6154637;28;20405;-86
2021/04/21 12:46:26;;;;;;;8.40;7.15;;;17.00;66.70;;;;;;6171133;28;20030;-84
2021/04/21 12:49:37;;;;;;;8.88;7.55;;;16.40;82.30;;;;;;6155015;28;20381;-83
2021/04/21 12:52:38;;;;;;;11.60;7.25;;;16.40;83.00;;;;;;6170089;28;20031;-83
2021/04/21 12:55:39;;;;;;;7.70;6.90;;;;;;;;;;6123308;28;20768;-83
2021/04/21 12:58:49;;;;;;;10.07;6.60;;;16.10;78.20;;;;;;6172347;28;20185;-83
2021/04/21 13:01:50;;;;;;;6.60;5.68;;;16.00;69.40;;;;;;6170959;28;20393;-84
2021/04/21 13:04:50;;;;;;;8.88;6.03;;;16.10;71.20;;;;;;6154091;28;20125;-83
2021/04/21 13:07:51;;;;;;;6.57;5.78;;;16.50;70.60;;;;;;6170591;28;20058;-84
2021/04/21 13:10:53;;;;;;;6.65;5.82;;;18.20;67.80;;;;;;6170410;28;20034;-82
2021/04/21 13:13:54;;;;;;;5.90;5.28;;;17.00;61.60;;;;;;6170349;28;20038;-83
2021/04/21 13:16:54;;;;;;;7.55;5.78;;;17.00;78.00;;;;;;6170486;28;20168;-84
2021/04/21 13:19:56;;;;;;;8.60;5.55;;;17.20;61.90;;;;;;6169674;28;20050;-83
2021/04/21 13:23:16;;;;;;;5.95;5.22;;;16.90;60.70;;;;;;6154510;28;20034;-83
2021/04/21 13:26:17;;;;;;;5.85;5.15;;;16.80;58.10;;;;;;6133723;28;20105;-83
2021/04/21 13:29:29;;;;;;;7.28;6.10;;;16.80;89.80;;;;;;6121595;29;20036;-83
2021/04/21 13:32:30;;;;;;;7.10;5.88;;;16.70;61.00;;;;;;6106201;29;20028;-84
2021/04/21 13:35:32;;;;;;;6.00;5.40;;;16.70;61.70;;;;;;6131055;29;20035;-83
2021/04/21 13:38:33;;;;;;;4.93;4.40;;;;;;;;;;6091668;29;20038;-82
2021/04/21 13:41:33;;;;;;;5.95;5.07;;;17.10;55.80;;;;;;6122755;29;20032;-83
2021/04/21 13:44:34;;;;;;;6.20;5.03;;;17.60;75.10;;;;;;6106384;29;20047;-83
2021/04/21 13:47:34;;;;;;;5.45;4.95;;;17.90;58.60;;;;;;6121586;29;20114;-83
2021/04/21 13:50:35;;;;;;;7.05;5.53;;;17.90;61.70;;;;;;6135691;29;20466;-83
2021/04/21 13:53:36;;;;;;;5.72;5.13;;;18.10;60.00;;;;;;6123758;29;20067;-83
2021/04/21 13:56:37;;;;;;;6.78;4.97;;;17.90;76.30;;;;;;6106283;29;20031;-84
2021/04/21 13:59:39;;;;;;;5.55;4.47;;;18.10;59.90;;;;;;6091204;29;20114;-82
2021/04/21 14:02:39;;;;;;;5.00;4.50;;;18.20;58.80;;;;;;6106375;29;20102;-84
2021/04/21 14:05:40;;;;;;;6.45;4.93;;;17.70;58.80;;;;;;6107592;28;20063;-82
2021/04/21 14:08:40;;;;;;;6.40;4.32;;;17.40;60.20;;;;;;6106637;29;20032;-83
2021/04/21 14:11:41;;;;;;;5.03;4.47;;;17.30;60.40;;;;;;6106481;29;20071;-83
2021/04/21 14:14:42;;;;;;;5.03;4.30;;;17.40;60.90;;;;;;6119380;29;20043;-82
2021/04/21 14:17:42;;;;;;;5.20;4.60;;;17.50;56.80;;;;;;6107509;29;20028;-81
2021/04/21 14:20:43;;;;;;;4.97;4.18;;;;;;;;;;6126492;29;20114;-83
2021/04/21 14:23:44;;;;;;;9.20;5.72;;;17.80;51.20;;;;;;6106038;29;20047;-82
2021/04/21 14:26:47;;;;;;;6.22;5.18;;;17.70;52.00;;;;;;6162136;28;20061;-82
2021/04/21 14:29:47;;;;;;;5.93;5.30;;;17.60;68.40;;;;;;6152227;28;20059;-82
2021/04/21 14:32:48;;;;;;;7.97;5.88;;;17.60;51.70;;;;;;6169016;28;20084;-83
2021/04/21 14:35:49;;;;;;;4.70;3.78;;;17.70;52.60;;;;;;6152032;28;20026;-83
2021/04/21 14:38:49;;;;;;;4.30;3.88;;;18.10;52.30;;;;;;6136610;28;20062;-85
2021/04/21 14:41:50;;;;;;;5.90;5.30;;;18.20;65.50;;;;;;6154096;28;20023;-82
2021/04/21 14:44:51;;;;;;;5.35;4.40;;;18.30;50.40;;;;;;6152549;28;20134;-82
2021/04/21 14:47:52;;;;;;;6.82;5.35;;;18.00;79.70;;;;;;6167358;28;20058;-83
2021/04/21 14:50:53;;;;;;;6.40;4.72;;;18.10;51.20;;;;;;6151980;28;20042;-83
2021/04/21 14:53:54;;;;;;;5.75;4.88;;;18.30;50.80;;;;;;6152018;28;20374;-81
2021/04/21 14:56:55;;;;;;;12.15;4.95;;;18.70;66.30;;;;;;6152790;28;20090;-86
2021/04/21 14:59:56;;;;;;;5.75;4.93;;;18.70;49.70;;;;;;6152666;28;20054;-81
2021/04/21 15:02:56;;;;;;;5.50;4.80;;;19.00;82.50;;;;;;6168134;28;20077;-82
2021/04/21 15:05:57;;;;;;;6.22;4.40;;;;;;;;;;6168424;28;20031;-82
2021/04/21 15:09:02;;;;;;;6.03;5.05;;;18.60;80.10;;;;;;6168175;28;20416;-81
2021/04/21 15:12:04;;;;;;;5.55;4.88;;;18.60;80.40;;;;;;6168248;28;20076;-82
2021/04/21 15:15:05;;;;;;;6.75;5.32;;;18.90;83.50;;;;;;6152302;28;20465;-81
2021/04/21 15:18:06;;;;;;;5.80;5.20;;;18.90;77.90;;;;;;6169574;28;20039;-80
2021/04/21 15:21:07;;;;;;;5.93;5.32;;;19.30;78.30;;;;;;6151943;28;20461;-81
2021/04/21 15:24:08;;;;;;;6.70;5.20;;;19.00;60.60;;;;;;6169543;28;20469;-81
2021/04/21 15:27:13;;;;;;;7.47;4.90;;;19.00;62.30;;;;;;6151990;28;20047;-84
2021/04/21 15:30:14;;;;;;;5.95;5.03;;;19.00;78.20;;;;;;6167993;28;20069;-80
2021/04/21 15:33:15;;;;;;;6.10;5.50;;;18.80;79.00;;;;;;6168608;28;20038;-81
2021/04/21 15:36:15;;;;;;;5.65;5.03;;;18.60;81.50;;;;;;6151983;28;20035;-81
2021/04/21 15:39:16;;;;;;;6.35;5.00;;;18.60;64.60;;;;;;6151985;28;20441;-81
2021/04/21 15:42:17;;;;;;;6.13;4.60;;;19.00;52.70;;;;;;6167933;28;20030;-81
2021/04/21 15:45:23;;;;;;;6.97;5.10;;;19.10;54.20;;;;;;6168582;28;20039;-81
2021/04/21 15:48:23;;;;;;;6.00;4.05;;;19.10;53.20;;;;;;6167270;28;20026;-82
2021/04/21 15:51:25;;;;;;;5.88;5.18;;;;;;;;;;6151840;28;20077;-81
2021/04/21 15:54:26;;;;;;;5.82;4.53;;;19.50;47.70;;;;;;6169171;28;20031;-83
2021/04/21 15:57:27;;;;;;;5.57;4.47;;;19.50;64.00;;;;;;6170976;28;20026;-83
2021/04/21 16:00:28;;;;;;;5.60;4.88;;;19.50;47.40;;;;;;6171784;28;20082;-80
2021/04/21 16:03:28;;;;;;;5.75;4.70;;;19.40;48.80;;;;;;6155550;28;20031;-82
2021/04/21 16:06:29;;;;;;;5.20;4.40;;;19.20;49.60;;;;;;6173669;28;20035;-79
2021/04/21 16:09:30;;;;;;;6.18;4.32;;;18.90;51.60;;;;;;6171662;28;20560;-79
2021/04/21 16:12:32;;;;;;;6.15;3.85;;;18.60;50.30;;;;;;6155667;28;20042;-80
2021/04/21 16:15:33;;;;;;;4.28;3.83;;;18.50;50.50;;;;;;6172877;28;20022;-83
2021/04/21 16:18:34;;;;;;;4.60;3.88;;;18.40;50.10;;;;;;6155525;28;20027;-83
2021/04/21 16:21:34;;;;;;;4.95;4.30;;;18.10;49.90;;;;;;6155397;28;20105;-82
2021/04/21 16:24:35;;;;;;;6.82;4.28;;;19.40;69.80;;;;;;6169069;28;20133;-83
2021/04/21 16:27:35;;;;;;;6.47;4.40;;;17.80;52.70;;;;;;6154787;28;20425;-84
2021/04/21 16:30:36;;;;;;;5.47;4.82;;;17.40;54.20;;;;;;6171231;28;20031;-83
2021/04/21 16:33:37;;;;;;;4.97;4.47;;;17.50;53.00;;;;;;6170033;28;20045;-84
2021/04/21 16:36:38;;;;;;;4.70;4.30;;;17.20;53.40;;;;;;6169212;28;20035;-85
2021/04/21 16:39:38;;;;;;;9.30;7.50;;;17.10;54.50;;;;;;6153071;28;20037;-82
2021/04/21 16:42:40;;;;;;;7.72;6.10;;;17.00;55.90;;;;;;6153422;28;20062;-81
2021/04/21 16:45:40;;;;;;;5.30;4.80;;;17.00;58.70;;;;;;6169809;28;20043;-82
2021/04/21 16:48:41;;;;;;;4.60;4.20;;;17.00;59.90;;;;;;6170075;28;20473;-82
2021/04/21 16:51:42;;;;;;;8.80;4.30;;;17.00;58.60;;;;;;6171034;28;20027;-81
2021/04/21 16:54:43;;;;;;;10.45;4.32;;;17.00;60.70;;;;;;6154561;28;20030;-81